Time;durP1;ratioP1;P1;durP2;ratioP2;P2;SDS_P1;SDS_P2;PMS_P1;PMS_P2;Temp;Humidity;BMP_temperature;BMP_pressure;BME280_temperature;BME280_humidity;BME280_pressure;Samples;Min_cycle;Max_cycle;Signal;HPM_P1;HPM_P2
2022/05/21 00:00:30;;;;;;;;;;;13.80;74.50;;;;;;5108729;28;20006;-71
2022/05/21 00:02:56;;;;;;;;;;;13.60;74.80;;;;;;5108296;28;19922;-72
2022/05/21 00:05:22;;;;;;;;;;;13.50;75.00;;;;;;5090435;28;19922;-72
2022/05/21 00:07:48;;;;;;;;;;;13.50;75.30;;;;;;5109196;28;20432;-71
2022/05/21 00:10:14;;;;;;;;;;;13.40;75.40;;;;;;5108390;28;19998;-72
2022/05/21 00:12:40;;;;;;;;;;;13.30;75.70;;;;;;5108521;28;20368;-71
2022/05/21 00:15:07;;;;;;;;;;;13.30;75.90;;;;;;5107933;28;19920;-72
2022/05/21 00:17:33;;;;;;;;;;;13.30;75.90;;;;;;5090047;28;19928;-72
2022/05/21 00:20:00;;;;;;;;;;;13.30;76.00;;;;;;5108443;28;19921;-72
2022/05/21 00:22:26;;;;;;;;;;;13.40;76.10;;;;;;5090526;28;19999;-73
2022/05/21 00:24:51;;;;;;;;;;;13.50;76.20;;;;;;5108408;28;19908;-71
2022/05/21 00:27:17;;;;;;;;;;;13.40;76.30;;;;;;5090301;28;20405;-72
2022/05/21 00:29:42;;;;;;;;;;;13.50;76.20;;;;;;5108438;28;19911;-71
2022/05/21 00:32:08;;;;;;;;;;;13.50;76.20;;;;;;5108412;28;19919;-71
2022/05/21 00:34:34;;;;;;;;;;;13.50;76.20;;;;;;5090081;28;19912;-71
2022/05/21 00:37:01;;;;;;;;;;;13.50;76.20;;;;;;5108168;28;20360;-71
2022/05/21 00:39:27;;;;;;;;;;;13.50;76.40;;;;;;5107978;28;19994;-71
2022/05/21 00:41:53;;;;;;;;;;;13.50;76.50;;;;;;5089894;28;20015;-71
2022/05/21 00:44:19;;;;;;;;;;;13.50;76.40;;;;;;5108074;28;19908;-72
2022/05/21 00:46:45;;;;;;;;;;;13.50;76.40;;;;;;5108246;28;20310;-71
2022/05/21 00:49:17;;;;;;;;;;;13.50;76.30;;;;;;5089835;28;19920;-72
2022/05/21 00:51:44;;;;;;;;;;;13.50;76.40;;;;;;5108222;28;19939;-71
2022/05/21 00:54:10;;;;;;;;;;;13.40;76.50;;;;;;5108258;28;19923;-72
2022/05/21 00:56:38;;;;;;;;;;;13.50;76.70;;;;;;5107660;28;19924;-72
2022/05/21 01:01:51;;;;;;;;;;;13.40;76.90;;;;;;5092671;28;19975;-72
2022/05/21 01:04:17;;;;;;;;;;;13.40;77.00;;;;;;5108181;28;19960;-72
2022/05/21 01:06:42;;;;;;;;;;;13.40;77.10;;;;;;5108261;28;19923;-72
2022/05/21 01:09:08;;;;;;;;;;;13.40;77.30;;;;;;5089949;28;19911;-72
2022/05/21 01:11:35;;;;;;;;;;;13.40;77.50;;;;;;5108096;28;19915;-72
2022/05/21 01:14:01;;;;;;;;;;;13.40;77.60;;;;;;5109206;28;19916;-72
2022/05/21 01:16:29;;;;;;;;;;;13.50;77.70;;;;;;5093698;28;20022;-72
2022/05/21 01:18:56;;;;;;;;;;;13.50;77.60;;;;;;5112147;28;19916;-71
2022/05/21 01:21:21;;;;;;;;;;;13.50;77.70;;;;;;5093633;28;19919;-72
2022/05/21 01:23:47;;;;;;;;;;;13.50;77.70;;;;;;5111885;28;19908;-72
2022/05/21 01:26:16;;;;;;;;;;;13.60;77.90;;;;;;5112071;28;19912;-72
2022/05/21 01:28:42;;;;;;;;;;;13.50;77.90;;;;;;5112231;28;19992;-72
2022/05/21 01:31:07;;;;;;;;;;;13.60;78.00;;;;;;5111853;28;20013;-72
2022/05/21 01:33:36;;;;;;;;;;;13.50;78.10;;;;;;5111813;28;19908;-71
2022/05/21 01:36:02;;;;;;;;;;;13.50;78.20;;;;;;5111579;28;19955;-71
2022/05/21 01:38:28;;;;;;;;;;;13.50;78.30;;;;;;5093362;28;19908;-72
2022/05/21 01:40:55;;;;;;;;;;;13.50;78.30;;;;;;5111726;28;19915;-72
2022/05/21 01:46:05;;;;;;;;;;;13.50;78.50;;;;;;5111822;28;19919;-71
2022/05/21 01:48:32;;;;;;;;;;;13.50;78.60;;;;;;5111250;28;19923;-72
2022/05/21 01:50:57;;;;;;;;;;;13.50;78.70;;;;;;5111821;28;20265;-72
2022/05/21 01:53:23;;;;;;;;;;;13.50;78.80;;;;;;5111361;28;19994;-72
2022/05/21 01:55:49;;;;;;;;;;;13.50;78.90;;;;;;5111425;28;19911;-72
2022/05/21 01:58:15;;;;;;;;;;;13.50;79.00;;;;;;5111356;28;19919;-72
2022/05/21 02:00:41;;;;;;;;;;;13.50;79.10;;;;;;5111287;28;20211;-73
2022/05/21 02:03:10;;;;;;;;;;;13.40;79.20;;;;;;5092654;28;19922;-73
2022/05/21 02:05:36;;;;;;;;;;;13.30;79.30;;;;;;5092868;28;19908;-72
2022/05/21 02:08:02;;;;;;;;;;;13.30;79.60;;;;;;5111181;28;19915;-71
2022/05/21 02:10:27;;;;;;;;;;;13.20;79.70;;;;;;5111183;28;19958;-71
2022/05/21 02:12:53;;;;;;;;;;;13.20;79.80;;;;;;5111058;28;20389;-72
2022/05/21 02:15:18;;;;;;;;;;;13.20;80.00;;;;;;5110940;28;20525;-72
2022/05/21 02:17:44;;;;;;;;;;;13.20;80.00;;;;;;5075710;28;19916;-71
2022/05/21 02:20:10;;;;;;;;;;;13.20;80.20;;;;;;5110901;28;20392;-72
2022/05/21 02:22:39;;;;;;;;;;;13.20;80.30;;;;;;5110854;28;19954;-72
2022/05/21 02:25:06;;;;;;;;;;;13.20;80.30;;;;;;5110604;28;19915;-72
2022/05/21 02:27:31;;;;;;;;;;;13.20;80.40;;;;;;5110861;28;19922;-72
2022/05/21 02:29:57;;;;;;;;;;;13.20;80.50;;;;;;5110777;28;19912;-72
2022/05/21 02:32:23;;;;;;;;;;;13.20;80.60;;;;;;5110687;28;19908;-72
2022/05/21 02:34:49;;;;;;;;;;;13.20;80.70;;;;;;5110661;28;19912;-72
2022/05/21 02:39:58;;;;;;;;;;;13.20;80.80;;;;;;5110939;28;20021;-72
2022/05/21 02:45:08;;;;;;;;;;;13.20;81.10;;;;;;5110871;28;19957;-72
2022/05/21 02:47:34;;;;;;;;;;;13.20;81.20;;;;;;5107951;28;19916;-71
2022/05/21 02:50:00;;;;;;;;;;;13.20;81.20;;;;;;5110443;28;19927;-72
2022/05/21 02:52:25;;;;;;;;;;;13.10;81.40;;;;;;5110308;28;19939;-72
2022/05/21 02:54:51;;;;;;;;;;;13.10;81.40;;;;;;5110223;28;19912;-72
2022/05/21 02:57:16;;;;;;;;;;;13.10;81.60;;;;;;5110212;28;19927;-72
2022/05/21 02:59:42;;;;;;;;;;;13.10;81.60;;;;;;5110237;28;19922;-72
2022/05/21 03:02:07;;;;;;;;;;;13.10;81.70;;;;;;5110074;28;19919;-72
2022/05/21 03:04:33;;;;;;;;;;;13.10;81.90;;;;;;5110046;28;19953;-72
2022/05/21 03:06:59;;;;;;;;;;;13.10;82.00;;;;;;5110064;28;20129;-72
2022/05/21 03:12:09;;;;;;;;;;;13.10;82.20;;;;;;5110132;28;20020;-72
2022/05/21 03:14:35;;;;;;;;;;;13.00;82.20;;;;;;5109822;28;19961;-72
2022/05/21 03:17:00;;;;;;;;;;;13.00;82.30;;;;;;5109734;28;19916;-72
2022/05/21 03:19:27;;;;;;;;;;;13.10;82.30;;;;;;5109932;28;20336;-72
2022/05/21 03:21:52;;;;;;;;;;;13.00;82.40;;;;;;5091804;28;19907;-72
2022/05/21 03:24:18;;;;;;;;;;;13.00;82.50;;;;;;5109664;28;19911;-72
2022/05/21 03:26:44;;;;;;;;;;;13.00;82.60;;;;;;5109667;28;20000;-72
2022/05/21 03:29:09;;;;;;;;;;;13.00;82.70;;;;;;5109512;28;20350;-72
2022/05/21 03:31:35;;;;;;;;;;;13.00;82.90;;;;;;5091348;28;19912;-72
2022/05/21 03:34:00;;;;;;;;;;;13.00;83.00;;;;;;5109414;28;19943;-72
2022/05/21 03:36:26;;;;;;;;;;;13.00;83.10;;;;;;5108681;28;20393;-72
2022/05/21 03:38:52;;;;;;;;;;;13.00;83.20;;;;;;5109355;28;19922;-72
2022/05/21 03:41:18;;;;;;;;;;;13.00;83.30;;;;;;5091098;28;19919;-72
2022/05/21 03:43:44;;;;;;;;;;;13.00;83.30;;;;;;5109182;28;19918;-72
2022/05/21 03:46:10;;;;;;;;;;;13.00;83.30;;;;;;5109491;28;20002;-72
2022/05/21 03:48:36;;;;;;;;;;;13.00;83.30;;;;;;5090781;28;19923;-72
2022/05/21 03:51:01;;;;;;;;;;;13.00;83.40;;;;;;5108926;28;20293;-71
2022/05/21 03:53:28;;;;;;;;;;;13.00;83.50;;;;;;5108979;28;19907;-72
2022/05/21 03:55:54;;;;;;;;;;;13.00;83.50;;;;;;5108906;28;19937;-73
2022/05/21 03:58:20;;;;;;;;;;;12.90;83.50;;;;;;5108944;28;20284;-71
2022/05/21 04:00:45;;;;;;;;;;;12.90;83.50;;;;;;5073751;28;19915;-72
2022/05/21 04:03:11;;;;;;;;;;;12.90;83.60;;;;;;5108944;28;19965;-72
2022/05/21 04:05:36;;;;;;;;;;;12.90;83.60;;;;;;5108942;28;19915;-72
2022/05/21 04:08:03;;;;;;;;;;;12.90;83.60;;;;;;5108793;28;20240;-72
2022/05/21 04:10:28;;;;;;;;;;;12.90;83.70;;;;;;5108435;28;19914;-72
2022/05/21 04:12:54;;;;;;;;;;;12.90;83.80;;;;;;5108576;28;19915;-71
2022/05/21 04:15:19;;;;;;;;;;;12.90;83.80;;;;;;5108514;28;20333;-71
2022/05/21 04:17:46;;;;;;;;;;;12.90;83.80;;;;;;5090759;28;19916;-71
2022/05/21 04:20:16;;;;;;;;;;;12.90;83.80;;;;;;5090388;28;19922;-71
2022/05/21 04:22:43;;;;;;;;;;;12.90;84.00;;;;;;5108803;28;19911;-71
2022/05/21 04:25:08;;;;;;;;;;;12.90;84.00;;;;;;5108629;28;20339;-71
2022/05/21 04:27:35;;;;;;;;;;;12.80;83.90;;;;;;5108602;28;19928;-71
2022/05/21 04:30:03;;;;;;;;;;;12.90;84.10;;;;;;5108584;28;19908;-72
2022/05/21 04:32:28;;;;;;;;;;;12.90;84.20;;;;;;5090180;28;19929;-72
2022/05/21 04:34:54;;;;;;;;;;;12.80;84.10;;;;;;5090465;28;19916;-70
2022/05/21 04:37:21;;;;;;;;;;;12.80;84.10;;;;;;5108470;28;19920;-72
2022/05/21 04:39:46;;;;;;;;;;;12.80;84.20;;;;;;5108404;28;19915;-71
2022/05/21 04:42:12;;;;;;;;;;;12.80;84.30;;;;;;5108481;28;19908;-72
2022/05/21 04:44:38;;;;;;;;;;;12.80;84.30;;;;;;5108445;28;20004;-72
2022/05/21 04:47:03;;;;;;;;;;;12.80;84.30;;;;;;5108311;28;19908;-71
2022/05/21 04:49:29;;;;;;;;;;;12.80;84.50;;;;;;5111968;28;19924;-71
2022/05/21 04:51:55;;;;;;;;;;;12.80;84.50;;;;;;5112500;28;20330;-72
2022/05/21 04:54:21;;;;;;;;;;;12.80;84.50;;;;;;5112806;28;19911;-72
2022/05/21 04:56:46;;;;;;;;;;;12.80;84.70;;;;;;5112409;28;20359;-71
2022/05/21 04:59:12;;;;;;;;;;;12.80;84.60;;;;;;5112423;28;19965;-72
2022/05/21 05:01:38;;;;;;;;;;;12.80;84.60;;;;;;5112446;28;19977;-72
2022/05/21 05:04:04;;;;;;;;;;;12.90;84.50;;;;;;5112197;28;20395;-71
2022/05/21 05:06:30;;;;;;;;;;;12.90;84.50;;;;;;5112266;28;19915;-72
2022/05/21 05:08:55;;;;;;;;;;;12.90;84.50;;;;;;5093969;28;19908;-71
2022/05/21 05:11:21;;;;;;;;;;;12.90;84.50;;;;;;5112219;28;20020;-71
2022/05/21 05:13:47;;;;;;;;;;;12.90;84.40;;;;;;5112152;28;19976;-72
2022/05/21 05:16:12;;;;;;;;;;;13.00;84.50;;;;;;5112153;28;20015;-71
2022/05/21 05:18:38;;;;;;;;;;;13.00;84.30;;;;;;5112096;28;19915;-71
2022/05/21 05:21:03;;;;;;;;;;;13.00;84.40;;;;;;5112077;28;19916;-72
2022/05/21 05:23:29;;;;;;;;;;;13.10;84.40;;;;;;5111768;28;20372;-71
2022/05/21 05:25:54;;;;;;;;;;;13.10;84.70;;;;;;5111590;28;20392;-72
2022/05/21 05:28:21;;;;;;;;;;;13.20;84.40;;;;;;5111893;28;19908;-72
2022/05/21 05:30:47;;;;;;;;;;;13.20;84.20;;;;;;5111712;28;19908;-73
2022/05/21 05:33:13;;;;;;;;;;;13.20;84.20;;;;;;5111703;28;19908;-72
2022/05/21 05:35:39;;;;;;;;;;;13.30;84.30;;;;;;5111575;28;20016;-72
2022/05/21 05:38:06;;;;;;;;;;;13.30;84.30;;;;;;5111728;28;20393;-72
2022/05/21 05:40:33;;;;;;;;;;;13.30;84.30;;;;;;5111807;28;19927;-72
2022/05/21 05:43:00;;;;;;;;;;;13.30;84.30;;;;;;5111422;28;19939;-72
2022/05/21 05:45:25;;;;;;;;;;;13.30;84.30;;;;;;5111460;28;19908;-72
2022/05/21 05:47:51;;;;;;;;;;;13.30;84.30;;;;;;5093042;28;19935;-72
2022/05/21 05:50:16;;;;;;;;;;;13.40;84.30;;;;;;5112002;28;19912;-72
2022/05/21 05:52:42;;;;;;;;;;;13.30;84.20;;;;;;5111315;28;19943;-72
2022/05/21 05:55:08;;;;;;;;;;;13.30;84.30;;;;;;5111252;28;19964;-72
2022/05/21 05:57:33;;;;;;;;;;;13.30;84.30;;;;;;5111277;28;20374;-71
2022/05/21 05:59:59;;;;;;;;;;;13.40;84.40;;;;;;5110447;28;19964;-71
2022/05/21 06:05:12;;;;;;;;;;;13.40;84.30;;;;;;5111561;28;19965;-72
2022/05/21 06:07:45;;;;;;;;;;;13.50;84.40;;;;;;5092975;28;19915;-72
2022/05/21 06:10:12;;;;;;;;;;;13.50;84.30;;;;;;5092707;28;19908;-72
2022/05/21 06:12:38;;;;;;;;;;;13.50;84.10;;;;;;5110906;28;19943;-72
2022/05/21 06:15:03;;;;;;;;;;;13.50;84.10;;;;;;5110926;28;20428;-72
2022/05/21 06:17:29;;;;;;;;;;;13.50;84.10;;;;;;5110903;28;19908;-73
2022/05/21 06:19:55;;;;;;;;;;;13.60;84.00;;;;;;5111303;28;19912;-71
2022/05/21 06:22:21;;;;;;;;;;;13.60;84.00;;;;;;5110721;28;20299;-72
2022/05/21 06:24:47;;;;;;;;;;;13.70;83.90;;;;;;5110599;28;19961;-72
2022/05/21 06:27:12;;;;;;;;;;;13.70;83.80;;;;;;5110570;28;19918;-72
2022/05/21 06:29:38;;;;;;;;;;;13.70;83.70;;;;;;5110316;28;19911;-72
2022/05/21 06:32:04;;;;;;;;;;;13.70;83.70;;;;;;5110691;28;19915;-73
2022/05/21 06:34:30;;;;;;;;;;;13.70;83.60;;;;;;5110565;28;20006;-72
2022/05/21 06:36:55;;;;;;;;;;;13.70;83.50;;;;;;5092308;28;20064;-72
2022/05/21 06:39:21;;;;;;;;;;;13.80;83.60;;;;;;5110486;28;19908;-72
2022/05/21 06:41:46;;;;;;;;;;;13.80;83.60;;;;;;5110548;28;19916;-73
2022/05/21 06:44:12;;;;;;;;;;;13.90;83.50;;;;;;5110035;28;20316;-73
2022/05/21 06:46:38;;;;;;;;;;;13.90;83.50;;;;;;5109967;28;20265;-72
2022/05/21 06:49:04;;;;;;;;;;;14.00;83.40;;;;;;5110040;28;19921;-72
2022/05/21 06:51:30;;;;;;;;;;;14.00;83.20;;;;;;5109940;28;19911;-73
2022/05/21 06:53:55;;;;;;;;;;;14.10;83.10;;;;;;5110058;28;19914;-72
2022/05/21 06:56:21;;;;;;;;;;;14.10;83.10;;;;;;5109865;28;19926;-73
2022/05/21 06:58:46;;;;;;;;;;;14.10;82.90;;;;;;5109890;28;19983;-71
2022/05/21 07:01:12;;;;;;;;;;;14.10;82.80;;;;;;5109792;28;19912;-72
2022/05/21 07:03:38;;;;;;;;;;;14.00;82.80;;;;;;5109595;28;19911;-72
2022/05/21 07:08:48;;;;;;;;;;;14.10;83.00;;;;;;5110145;28;19915;-72
2022/05/21 07:11:14;;;;;;;;;;;14.20;83.00;;;;;;5108850;28;20281;-72
2022/05/21 07:13:39;;;;;;;;;;;14.30;83.00;;;;;;5109432;28;19923;-66
2022/05/21 07:16:05;;;;;;;;;;;14.40;82.90;;;;;;5109327;28;19916;-73
2022/05/21 07:18:31;;;;;;;;;;;14.50;82.80;;;;;;5109951;28;19908;-73
2022/05/21 07:20:57;;;;;;;;;;;14.70;82.50;;;;;;5109586;28;20589;-72
2022/05/21 07:23:23;;;;;;;;;;;14.70;82.20;;;;;;5091218;28;19911;-72
2022/05/21 07:25:49;;;;;;;;;;;14.80;82.10;;;;;;5109476;28;19911;-72
2022/05/21 07:28:15;;;;;;;;;;;14.80;82.20;;;;;;5108855;28;19916;-71
2022/05/21 07:30:42;;;;;;;;;;;14.90;82.00;;;;;;5109297;28;19912;-72
2022/05/21 07:33:13;;;;;;;;;;;15.00;81.90;;;;;;5109007;28;19907;-72
2022/05/21 07:35:38;;;;;;;;;;;15.20;81.90;;;;;;5109194;28;19916;-72
2022/05/21 07:38:08;;;;;;;;;;;15.40;81.60;;;;;;5109198;28;19915;-73
2022/05/21 07:40:34;;;;;;;;;;;15.50;81.40;;;;;;5109347;28;19908;-74
2022/05/21 07:43:08;;;;;;;;;;;15.80;81.10;;;;;;5109195;28;20363;-74
2022/05/21 07:45:38;;;;;;;;;;;16.00;81.00;;;;;;5108968;28;19908;-72
2022/05/21 07:48:04;;;;;;;;;;;16.50;81.10;;;;;;5086893;28;20274;-72
2022/05/21 07:50:30;;;;;;;;;;;16.90;80.40;;;;;;5088168;28;19916;-72
2022/05/21 07:52:55;;;;;;;;;;;17.00;79.50;;;;;;5087989;28;19908;-73
2022/05/21 07:55:21;;;;;;;;;;;17.00;79.20;;;;;;5087845;28;19914;-73
2022/05/21 07:57:46;;;;;;;;;;;17.00;79.20;;;;;;5087737;28;19939;-73
2022/05/21 08:00:17;;;;;;;;;;;16.90;78.40;;;;;;5087702;28;19959;-73
2022/05/21 08:02:44;;;;;;;;;;;16.90;78.30;;;;;;5086271;28;19920;-73
2022/05/21 08:05:10;;;;;;;;;;;16.80;78.10;;;;;;5087852;28;19992;-74
2022/05/21 08:07:36;;;;;;;;;;;16.60;78.00;;;;;;5087704;28;19915;-74
2022/05/21 08:10:02;;;;;;;;;;;16.60;78.10;;;;;;5087912;28;20329;-74
2022/05/21 08:12:27;;;;;;;;;;;16.60;78.00;;;;;;5087941;28;19909;-73
2022/05/21 08:14:53;;;;;;;;;;;16.50;78.00;;;;;;5088101;28;20003;-75
2022/05/21 08:17:19;;;;;;;;;;;16.50;77.80;;;;;;5086698;28;19939;-73
2022/05/21 08:19:44;;;;;;;;;;;16.40;77.80;;;;;;5087874;28;19912;-75
2022/05/21 08:27:38;;;;;;;;;;;16.30;78.40;;;;;;5087713;28;20447;-73
2022/05/21 08:30:04;;;;;;;;;;;16.40;78.30;;;;;;5087969;28;19908;-73
2022/05/21 08:32:29;;;;;;;;;;;16.50;77.80;;;;;;5086252;28;20007;-74
2022/05/21 08:34:55;;;;;;;;;;;16.60;77.70;;;;;;5087227;28;19999;-73
2022/05/21 08:37:20;;;;;;;;;;;16.70;77.40;;;;;;5086074;28;19912;-73
2022/05/21 08:39:46;;;;;;;;;;;16.70;77.30;;;;;;5087462;28;19916;-72
2022/05/21 08:42:25;;;;;;;;;;;16.80;77.10;;;;;;5087451;28;19953;-74
2022/05/21 08:44:56;;;;;;;;;;;16.80;76.80;;;;;;5087620;28;19908;-73
2022/05/21 08:47:27;;;;;;;;;;;16.70;76.60;;;;;;5086293;28;20382;-73
2022/05/21 08:49:58;;;;;;;;;;;16.60;76.70;;;;;;5107213;28;19980;-73
2022/05/21 08:52:42;;;;;;;;;;;16.60;76.60;;;;;;5107807;28;20383;-73
2022/05/21 08:55:09;;;;;;;;;;;16.50;76.70;;;;;;5107524;28;19915;-72
2022/05/21 08:57:48;;;;;;;;;;;16.40;76.90;;;;;;5107388;28;19956;-73
2022/05/21 09:00:25;;;;;;;;;;;16.30;77.10;;;;;;5089703;28;20473;-73
2022/05/21 09:02:52;;;;;;;;;;;16.40;77.30;;;;;;5107683;28;19908;-72
2022/05/21 09:05:19;;;;;;;;;;;16.40;77.30;;;;;;5073243;28;20010;-73
2022/05/21 09:08:04;;;;;;;;;;;16.50;77.30;;;;;;5108009;28;19949;-72
2022/05/21 09:10:34;;;;;;;;;;;16.50;77.30;;;;;;5107553;28;20043;-72
2022/05/21 09:13:17;;;;;;;;;;;16.60;77.10;;;;;;5108175;28;19922;-73
2022/05/21 09:18:29;;;;;;;;;;;16.90;77.20;;;;;;5109279;28;19969;-72
2022/05/21 09:21:08;;;;;;;;;;;17.20;77.20;;;;;;5108295;28;19924;-74
2022/05/21 09:23:51;;;;;;;;;;;17.60;77.10;;;;;;5108275;28;19918;-74
2022/05/21 09:26:18;;;;;;;;;;;18.00;76.70;;;;;;5108248;28;19908;-73
2022/05/21 09:28:44;;;;;;;;;;;18.50;76.30;;;;;;5101895;28;20355;-73
2022/05/21 09:31:11;;;;;;;;;;;18.80;75.60;;;;;;5098154;28;20009;-73
2022/05/21 09:33:41;;;;;;;;;;;19.00;74.50;;;;;;5087854;28;19912;-72
2022/05/21 09:36:08;;;;;;;;;;;19.00;74.00;;;;;;5104577;28;20010;-73
2022/05/21 09:38:36;;;;;;;;;;;19.00;74.10;;;;;;5086099;28;19989;-72
2022/05/21 09:41:11;;;;;;;;;;;19.10;74.10;;;;;;5099233;28;19966;-73
2022/05/21 09:46:26;;;;;;;;;;;19.40;74.00;;;;;;5100111;28;20386;-74
2022/05/21 09:48:53;;;;;;;;;;;19.60;73.80;;;;;;5080533;28;19931;-73
2022/05/21 09:51:29;;;;;;;;;;;19.90;73.50;;;;;;5101196;28;20323;-74
2022/05/21 09:53:55;;;;;;;;;;;20.10;73.40;;;;;;5101187;28;19908;-72
2022/05/21 09:56:29;;;;;;;;;;;20.40;72.30;;;;;;5091746;28;19915;-72
2022/05/21 09:59:14;;;;;;;;;;;20.50;71.30;;;;;;5105480;28;19908;-73
2022/05/21 10:01:45;;;;;;;;;;;20.70;72.20;;;;;;5100223;28;19916;-74
2022/05/21 10:04:17;;;;;;;;;;;21.20;72.30;;;;;;5100100;28;20423;-70
2022/05/21 10:06:54;;;;;;;;;;;21.50;71.10;;;;;;5103573;28;19912;-71
2022/05/21 10:12:23;;;;;;;;;;;21.10;69.30;;;;;;5063493;28;20023;-72
2022/05/21 10:14:59;;;;;;;;;;;20.70;70.00;;;;;;5102969;28;20354;-72
2022/05/21 10:17:35;;;;;;;;;;;20.60;70.20;;;;;;5084908;28;20365;-72
2022/05/21 10:20:20;;;;;;;;;;;20.30;70.20;;;;;;5101618;28;19908;-71
2022/05/21 10:23:04;;;;;;;;;;;20.20;70.60;;;;;;5098102;28;19930;-71
2022/05/21 10:25:42;;;;;;;;;;;20.10;70.40;;;;;;5096245;28;19922;-69
2022/05/21 10:28:07;;;;;;;;;;;20.00;70.60;;;;;;5101115;28;19914;-73
2022/05/21 10:30:45;;;;;;;;;;;19.90;70.60;;;;;;5099398;28;19935;-72
2022/05/21 10:33:13;;;;;;;;;;;19.90;70.50;;;;;;5100254;28;19908;-74
2022/05/21 10:35:39;;;;;;;;;;;19.80;70.20;;;;;;5096754;28;20061;-73
2022/05/21 10:38:10;;;;;;;;;;;19.80;70.60;;;;;;5100270;28;19998;-73
2022/05/21 10:40:43;;;;;;;;;;;19.90;70.70;;;;;;5101961;28;19908;-76
2022/05/21 10:43:24;;;;;;;;;;;20.00;70.70;;;;;;5083826;28;20722;-74
2022/05/21 10:46:09;;;;;;;;;;;20.10;70.60;;;;;;5082231;28;19916;-75
2022/05/21 10:48:35;;;;;;;;;;;20.40;70.70;;;;;;5097857;28;20370;-74
2022/05/21 10:51:25;;;;;;;;;;;20.50;70.10;;;;;;5099409;28;19929;-75
2022/05/21 10:53:54;;;;;;;;;;;20.60;69.60;;;;;;5097910;28;19908;-73
2022/05/21 10:56:22;;;;;;;;;;;20.50;69.20;;;;;;5099376;28;19949;-74
2022/05/21 10:59:06;;;;;;;;;;;20.40;68.90;;;;;;5097806;28;19912;-74
2022/05/21 11:01:39;;;;;;;;;;;20.40;69.30;;;;;;5097714;28;20541;-74
2022/05/21 11:04:04;;;;;;;;;;;20.50;69.40;;;;;;5099628;28;19907;-75
2022/05/21 11:06:48;;;;;;;;;;;20.50;69.10;;;;;;5101165;28;19912;-76
2022/05/21 11:09:30;;;;;;;;;;;20.50;69.30;;;;;;5099668;28;19927;-70
2022/05/21 11:12:01;;;;;;;;;;;20.60;69.70;;;;;;5056524;28;19955;-74
2022/05/21 11:14:30;;;;;;;;;;;20.70;69.60;;;;;;5097192;28;19969;-75
2022/05/21 11:17:16;;;;;;;;;;;20.70;69.50;;;;;;5099895;28;19915;-73
2022/05/21 11:19:46;;;;;;;;;;;20.70;69.30;;;;;;5056707;28;19977;-74
2022/05/21 11:22:50;;;;;;;;;;;20.60;68.70;;;;;;5089425;28;20319;-74
2022/05/21 11:25:18;;;;;;;;;;;20.40;68.70;;;;;;4990637;28;19909;-73
2022/05/21 11:27:57;;;;;;;;;;;20.10;68.90;;;;;;4990801;28;19953;-74
2022/05/21 11:30:23;;;;;;;;;;;20.00;69.30;;;;;;5036786;28;19927;-72
2022/05/21 11:38:36;;;;;;;;;;;19.00;71.50;;;;;;5089584;28;19915;-73
2022/05/21 11:41:30;;;;;;;;;;;19.10;71.90;;;;;;5071152;28;20008;-75
2022/05/21 11:46:45;;;;;;;;;;;19.70;71.90;;;;;;5088817;28;19915;-72
2022/05/21 11:49:26;;;;;;;;;;;19.90;72.00;;;;;;5088555;28;19919;-74
2022/05/21 11:51:52;;;;;;;;;;;20.00;71.70;;;;;;5070713;28;19915;-73
2022/05/21 11:54:36;;;;;;;;;;;20.30;71.80;;;;;;5088272;28;19916;-72
2022/05/21 11:57:04;;;;;;;;;;;20.50;71.50;;;;;;5088331;28;20054;-73
2022/05/21 11:59:49;;;;;;;;;;;20.70;71.30;;;;;;5088100;28;19923;-73
2022/05/21 12:02:22;;;;;;;;;;;20.80;71.40;;;;;;5088740;28;19912;-72
2022/05/21 12:04:49;;;;;;;;;;;21.10;71.40;;;;;;5088697;28;19908;-73
2022/05/21 12:07:17;;;;;;;;;;;21.30;71.00;;;;;;5088208;28;19908;-73
2022/05/21 12:10:02;;;;;;;;;;;21.50;70.90;;;;;;5088286;28;20307;-74
2022/05/21 12:12:28;;;;;;;;;;;21.70;70.50;;;;;;5088106;28;19975;-75
2022/05/21 12:15:13;;;;;;;;;;;22.10;70.70;;;;;;5088157;28;20364;-75
2022/05/21 12:17:58;;;;;;;;;;;22.40;70.00;;;;;;5088012;28;19923;-74
2022/05/21 12:20:41;;;;;;;;;;;22.60;69.90;;;;;;5076269;28;19918;-75
2022/05/21 12:23:10;;;;;;;;;;;22.80;69.10;;;;;;5097847;28;19939;-75
2022/05/21 12:25:42;;;;;;;;;;;22.80;68.30;;;;;;5098022;28;19908;-74
2022/05/21 12:28:11;;;;;;;;;;;22.70;68.60;;;;;;5079638;28;19912;-74
2022/05/21 12:30:37;;;;;;;;;;;22.70;68.10;;;;;;5073121;28;19909;-76
2022/05/21 12:33:03;;;;;;;;;;;22.70;68.70;;;;;;5088399;28;20058;-74
2022/05/21 12:35:39;;;;;;;;;;;22.80;69.20;;;;;;5088516;28;19908;-74
2022/05/21 12:38:23;;;;;;;;;;;23.10;68.80;;;;;;5088276;28;19908;-74
2022/05/21 12:40:49;;;;;;;;;;;23.30;68.50;;;;;;5088179;28;19912;-74
2022/05/21 12:43:15;;;;;;;;;;;23.40;69.10;;;;;;5088108;28;20369;-74
2022/05/21 12:45:51;;;;;;;;;;;23.60;68.60;;;;;;5069530;28;19957;-74
2022/05/21 12:48:19;;;;;;;;;;;23.70;68.40;;;;;;5069383;28;19920;-74
2022/05/21 12:50:49;;;;;;;;;;;23.50;67.50;;;;;;5068905;28;19920;-74
2022/05/21 12:53:19;;;;;;;;;;;23.30;68.10;;;;;;5087709;28;20262;-74
2022/05/21 12:55:45;;;;;;;;;;;23.20;67.10;;;;;;5088070;28;19966;-73
2022/05/21 12:58:17;;;;;;;;;;;22.90;66.60;;;;;;5088608;28;19943;-75
2022/05/21 13:00:51;;;;;;;;;;;22.70;66.80;;;;;;5088234;28;19947;-74
2022/05/21 13:03:18;;;;;;;;;;;22.60;67.00;;;;;;5088231;28;19908;-74
2022/05/21 13:05:50;;;;;;;;;;;22.80;67.40;;;;;;5093155;28;19947;-75
2022/05/21 13:08:16;;;;;;;;;;;22.80;67.00;;;;;;5078132;28;20350;-74
2022/05/21 13:10:53;;;;;;;;;;;22.80;66.70;;;;;;5080913;28;19911;-73
2022/05/21 13:13:19;;;;;;;;;;;22.90;67.00;;;;;;5101981;28;19912;-74
2022/05/21 13:16:02;;;;;;;;;;;23.10;66.80;;;;;;5100083;28;20010;-73
2022/05/21 13:18:35;;;;;;;;;;;23.50;66.40;;;;;;5078529;28;19912;-73
2022/05/21 13:21:19;;;;;;;;;;;23.90;66.40;;;;;;5091588;28;19908;-74
2022/05/21 13:23:47;;;;;;;;;;;24.30;64.90;;;;;;5091535;28;19951;-72
2022/05/21 13:26:27;;;;;;;;;;;24.30;63.80;;;;;;5090857;28;19908;-74
2022/05/21 13:29:10;;;;;;;;;;;24.20;63.10;;;;;;5095699;28;20512;-73
2022/05/21 13:31:35;;;;;;;;;;;24.10;63.50;;;;;;5098026;28;19908;-74
2022/05/21 13:34:01;;;;;;;;;;;24.20;63.50;;;;;;5102230;28;20345;-73
2022/05/21 13:36:33;;;;;;;;;;;24.10;63.70;;;;;;5085056;28;20006;-75
2022/05/21 13:38:59;;;;;;;;;;;24.00;63.30;;;;;;5101270;28;20370;-73
2022/05/21 13:41:30;;;;;;;;;;;23.80;62.20;;;;;;5095074;28;19916;-71
2022/05/21 13:43:56;;;;;;;;;;;23.70;62.30;;;;;;5093921;28;20346;-74
2022/05/21 13:46:32;;;;;;;;;;;23.60;62.30;;;;;;5082570;28;20802;-60
2022/05/21 13:49:00;;;;;;;;;;;23.60;62.00;;;;;;5100655;28;19939;-73
2022/05/21 13:51:28;;;;;;;;;;;23.50;61.50;;;;;;5080698;28;19908;-73
2022/05/21 13:53:56;;;;;;;;;;;23.30;61.40;;;;;;5106071;28;21162;-75
2022/05/21 13:56:25;;;;;;;;;;;23.10;61.70;;;;;;5106748;28;19924;-73
2022/05/21 13:59:09;;;;;;;;;;;22.90;61.80;;;;;;5083566;28;19919;-74
2022/05/21 14:01:36;;;;;;;;;;;22.80;62.00;;;;;;5087142;28;20282;-75
2022/05/21 14:04:06;;;;;;;;;;;22.70;62.00;;;;;;5101120;28;19915;-73
2022/05/21 14:06:32;;;;;;;;;;;22.60;61.90;;;;;;5102183;28;19920;-75
2022/05/21 14:08:59;;;;;;;;;;;22.50;62.30;;;;;;5081803;28;19920;-75
2022/05/21 14:11:26;;;;;;;;;;;22.50;62.40;;;;;;5103570;28;19908;-74
2022/05/21 14:13:58;;;;;;;;;;;22.30;62.70;;;;;;5080959;28;19934;-73
2022/05/21 14:16:27;;;;;;;;;;;22.30;63.30;;;;;;5072746;28;19913;-73
2022/05/21 14:19:00;;;;;;;;;;;22.20;63.40;;;;;;5090833;28;20029;-73
2022/05/21 14:21:26;;;;;;;;;;;22.10;63.50;;;;;;5090704;28;20257;-72
2022/05/21 14:24:08;;;;;;;;;;;21.80;63.40;;;;;;5091224;28;20005;-72
2022/05/21 14:26:35;;;;;;;;;;;21.40;63.80;;;;;;5090329;28;20306;-73
2022/05/21 14:29:19;;;;;;;;;;;21.00;64.30;;;;;;5090250;28;19908;-73
2022/05/21 14:31:46;;;;;;;;;;;20.80;64.70;;;;;;5090586;28;19961;-73
2022/05/21 14:34:12;;;;;;;;;;;20.70;64.90;;;;;;5090302;28;20304;-73
2022/05/21 14:36:41;;;;;;;;;;;20.70;65.00;;;;;;5090066;28;19916;-73
2022/05/21 14:39:08;;;;;;;;;;;20.80;65.00;;;;;;5090795;28;19930;-72
2022/05/21 14:41:35;;;;;;;;;;;21.10;65.30;;;;;;5090259;28;19912;-72
2022/05/21 14:44:02;;;;;;;;;;;21.40;64.80;;;;;;5090211;28;19909;-71
2022/05/21 14:49:13;;;;;;;;;;;21.80;64.30;;;;;;5089850;28;19956;-72
2022/05/21 14:54:26;;;;;;;;;;;21.90;64.20;;;;;;5089960;28;19916;-73
2022/05/21 14:56:52;;;;;;;;;;;22.00;64.10;;;;;;5089620;28;20018;-73
2022/05/21 14:59:18;;;;;;;;;;;22.10;64.30;;;;;;5089919;28;19969;-72
2022/05/21 15:01:43;;;;;;;;;;;22.20;64.70;;;;;;5089817;28;20438;-72
2022/05/21 15:04:09;;;;;;;;;;;22.40;64.80;;;;;;5089590;28;19917;-72
2022/05/21 15:06:37;;;;;;;;;;;22.50;64.40;;;;;;5089355;28;20404;-73
2022/05/21 15:09:03;;;;;;;;;;;22.50;63.60;;;;;;5089487;28;19987;-74
2022/05/21 15:11:29;;;;;;;;;;;22.40;63.50;;;;;;5088961;28;20011;-72